Time;durP1;ratioP1;P1;durP2;ratioP2;P2;SDS_P1;SDS_P2;PMS_P1;PMS_P2;Temp;Humidity;BMP_temperature;BMP_pressure;BME280_temperature;BME280_humidity;BME280_pressure;Samples;Min_cycle;Max_cycle;Signal;HPM_P1;HPM_P2
2022/06/24 00:02:10;;;;;;;0.40;0.20;;;17.90;99.90;;;;;;5070029;28;20910;-68
2022/06/24 00:04:37;;;;;;;0.40;0.20;;;18.00;99.90;;;;;;5070250;28;20372;-68
2022/06/24 00:07:14;;;;;;;0.80;0.60;;;17.90;99.90;;;;;;5072774;28;21041;-69
2022/06/24 00:09:41;;;;;;;0.40;0.30;;;17.90;99.90;;;;;;5073779;28;20414;-68
2022/06/24 00:12:10;;;;;;;0.40;0.20;;;17.90;99.90;;;;;;5072286;28;20387;-69
2022/06/24 00:14:38;;;;;;;0.40;0.20;;;17.80;99.90;;;;;;5071249;28;20396;-70
2022/06/24 00:17:05;;;;;;;0.40;0.20;;;17.90;99.90;;;;;;5072873;28;20418;-69
2022/06/24 00:19:34;;;;;;;0.40;0.20;;;17.80;99.90;;;;;;5073554;28;20394;-69
2022/06/24 00:22:11;;;;;;;0.60;0.60;;;17.90;99.90;;;;;;5072818;28;20514;-69
2022/06/24 00:24:39;;;;;;;0.40;0.20;;;17.80;99.90;;;;;;5073738;28;20387;-69
2022/06/24 00:27:22;;;;;;;0.40;0.30;;;17.80;99.90;;;;;;5072388;28;20426;-69
2022/06/24 00:29:49;;;;;;;0.40;0.20;;;17.70;99.90;;;;;;5072551;28;20391;-68
2022/06/24 00:32:16;;;;;;;0.50;0.50;;;17.70;99.90;;;;;;5072753;28;20404;-69
2022/06/24 00:34:42;;;;;;;0.40;0.30;;;17.80;99.90;;;;;;5072435;28;20433;-68
2022/06/24 00:37:28;;;;;;;0.40;0.20;;;17.80;99.90;;;;;;5071477;28;20376;-69
2022/06/24 00:39:56;;;;;;;0.40;0.30;;;17.90;99.90;;;;;;5072652;28;20392;-67
2022/06/24 00:42:23;;;;;;;0.40;0.20;;;17.90;99.90;;;;;;5072923;28;20407;-67
2022/06/24 00:45:21;;;;;;;0.40;0.30;;;17.80;99.90;;;;;;5071890;28;20396;-67
2022/06/24 00:47:48;;;;;;;0.40;0.20;;;17.80;99.90;;;;;;5072117;28;20396;-67
2022/06/24 00:50:26;;;;;;;0.60;0.60;;;17.70;99.90;;;;;;5072730;28;20445;-67
2022/06/24 00:52:54;;;;;;;0.40;0.20;;;17.70;99.90;;;;;;5072250;28;20410;-68
2022/06/24 00:55:25;;;;;;;0.40;0.30;;;17.60;99.90;;;;;;5072822;28;20907;-67
2022/06/24 00:57:51;;;;;;;0.40;0.20;;;17.60;99.90;;;;;;5052344;28;20446;-67
2022/06/24 01:00:17;;;;;;;0.40;0.20;;;17.60;99.90;;;;;;5053834;28;20389;-69
2022/06/24 01:02:43;;;;;;;0.40;0.20;;;17.60;99.90;;;;;;5072342;28;20424;-67
2022/06/24 01:05:10;;;;;;;0.40;0.20;;;17.60;99.90;;;;;;5072358;28;20406;-67
2022/06/24 01:07:37;;;;;;;0.40;0.20;;;17.50;99.90;;;;;;5072574;28;20392;-67
2022/06/24 01:10:03;;;;;;;0.40;0.30;;;17.50;99.90;;;;;;5071981;28;20454;-68
2022/06/24 01:12:31;;;;;;;0.50;0.50;;;17.40;99.90;;;;;;5072498;28;20410;-68
2022/06/24 01:14:57;;;;;;;0.40;0.20;;;17.40;99.90;;;;;;5071462;28;20806;-67
2022/06/24 01:17:23;;;;;;;0.40;0.30;;;17.40;99.90;;;;;;5071087;28;20478;-68
2022/06/24 01:19:49;;;;;;;0.40;0.20;;;17.40;99.90;;;;;;5071472;28;20855;-67
2022/06/24 01:22:23;;;;;;;0.40;0.20;;;17.40;99.90;;;;;;5071760;28;20480;-68
2022/06/24 01:24:48;;;;;;;0.40;0.25;;;17.40;99.90;;;;;;5071519;28;20407;-67
2022/06/24 01:27:14;;;;;;;0.40;0.20;;;17.50;99.90;;;;;;5071057;28;20392;-68
2022/06/24 01:29:40;;;;;;;0.40;0.30;;;17.40;99.90;;;;;;5072205;28;20390;-67
2022/06/24 01:32:06;;;;;;;0.40;0.20;;;17.50;99.90;;;;;;5070892;28;20457;-67
2022/06/24 01:34:31;;;;;;;0.40;0.30;;;17.60;99.90;;;;;;5072426;28;20506;-68
2022/06/24 01:36:58;;;;;;;0.40;0.30;;;17.50;99.90;;;;;;5071328;28;20915;-67
2022/06/24 01:39:23;;;;;;;0.40;0.20;;;17.40;99.90;;;;;;5071570;28;20396;-68
2022/06/24 01:41:50;;;;;;;0.40;0.20;;;17.40;99.90;;;;;;5070602;28;20457;-67
2022/06/24 01:44:17;;;;;;;0.40;0.20;;;17.40;99.90;;;;;;5071733;28;20384;-68
2022/06/24 01:46:42;;;;;;;0.70;0.70;;;17.40;99.90;;;;;;5071485;28;20457;-68
2022/06/24 01:49:08;;;;;;;0.40;0.20;;;17.30;99.90;;;;;;5071056;28;20387;-67
2022/06/24 01:51:36;;;;;;;0.40;0.20;;;17.40;99.90;;;;;;5071115;28;20392;-69
2022/06/24 01:54:02;;;;;;;0.40;0.30;;;17.40;99.90;;;;;;5050836;28;20436;-67
2022/06/24 01:56:28;;;;;;;0.40;0.30;;;17.40;99.90;;;;;;5051483;28;20385;-68
2022/06/24 01:58:54;;;;;;;0.40;0.20;;;17.30;99.90;;;;;;5051103;28;20472;-67
2022/06/24 02:01:20;;;;;;;0.40;0.30;;;17.30;99.90;;;;;;5033743;28;20812;-67
2022/06/24 02:03:46;;;;;;;0.40;0.30;;;17.30;99.90;;;;;;5070973;28;20411;-68
2022/06/24 02:06:12;;;;;;;0.40;0.20;;;17.30;99.90;;;;;;5070588;28;20427;-67
2022/06/24 02:08:39;;;;;;;0.40;0.20;;;17.30;99.90;;;;;;5071410;28;20387;-68
2022/06/24 02:13:51;;;;;;;0.40;0.20;;;17.20;99.90;;;;;;5070679;28;20417;-67
2022/06/24 02:16:20;;;;;;;0.40;0.20;;;17.20;99.90;;;;;;5071017;28;20392;-67
2022/06/24 02:18:46;;;;;;;0.40;0.20;;;17.20;99.90;;;;;;5071222;28;20478;-67
2022/06/24 02:21:13;;;;;;;0.40;0.20;;;17.20;99.90;;;;;;5052320;28;20653;-67
2022/06/24 02:23:39;;;;;;;0.40;0.20;;;17.20;99.90;;;;;;5071068;28;20407;-67
2022/06/24 02:26:05;;;;;;;0.40;0.20;;;17.10;99.90;;;;;;5070175;28;20433;-67
2022/06/24 02:28:31;;;;;;;0.40;0.20;;;17.10;99.90;;;;;;5070873;28;20410;-68
2022/06/24 02:30:58;;;;;;;0.40;0.30;;;17.10;99.90;;;;;;5070220;28;20768;-67
2022/06/24 02:33:25;;;;;;;0.40;0.20;;;17.20;99.90;;;;;;5070629;28;20473;-68
2022/06/24 02:35:51;;;;;;;0.40;0.20;;;17.20;99.90;;;;;;5070787;28;20384;-68
2022/06/24 02:38:17;;;;;;;0.40;0.20;;;17.10;99.90;;;;;;5070305;28;20392;-69
2022/06/24 02:40:45;;;;;;;0.60;0.60;;;17.10;99.90;;;;;;5070405;28;20895;-69
2022/06/24 02:43:32;;;;;;;0.40;0.20;;;17.10;99.90;;;;;;5069301;28;20866;-68
2022/06/24 02:46:00;;;;;;;0.40;0.20;;;17.10;99.90;;;;;;5070054;28;20490;-68
2022/06/24 02:48:27;;;;;;;0.40;0.20;;;17.00;99.90;;;;;;5070706;28;20392;-69
2022/06/24 02:50:58;;;;;;;0.40;0.20;;;17.10;99.90;;;;;;5069786;28;20399;-68
2022/06/24 02:53:25;;;;;;;0.40;0.20;;;17.20;99.90;;;;;;5073635;28;20483;-69
2022/06/24 02:56:04;;;;;;;0.40;0.20;;;17.10;99.90;;;;;;5070448;28;20471;-68
2022/06/24 02:58:33;;;;;;;0.40;0.20;;;17.10;99.90;;;;;;5070198;28;20728;-69
2022/06/24 03:00:59;;;;;;;0.40;0.20;;;17.00;99.90;;;;;;5069867;28;20486;-68
2022/06/24 03:03:25;;;;;;;0.40;0.20;;;17.10;99.90;;;;;;5070450;28;20423;-69
2022/06/24 03:05:51;;;;;;;0.40;0.30;;;17.00;99.90;;;;;;5070414;28;20459;-69
2022/06/24 03:08:19;;;;;;;0.70;0.70;;;17.10;99.90;;;;;;5069617;28;20740;-69
2022/06/24 03:10:45;;;;;;;0.40;0.20;;;16.90;99.90;;;;;;5070472;28;20380;-69
2022/06/24 03:13:11;;;;;;;0.40;0.40;;;16.90;99.90;;;;;;5069657;28;20435;-68
2022/06/24 03:15:38;;;;;;;0.40;0.30;;;16.90;99.90;;;;;;5070217;28;20793;-69
2022/06/24 03:18:04;;;;;;;0.40;0.30;;;16.90;99.90;;;;;;5069770;28;20387;-68
2022/06/24 03:20:30;;;;;;;0.40;0.30;;;16.90;99.90;;;;;;5070222;28;20435;-69
2022/06/24 03:22:56;;;;;;;0.40;0.20;;;16.90;99.90;;;;;;5069191;28;20415;-68
2022/06/24 03:25:22;;;;;;;0.40;0.30;;;16.90;99.90;;;;;;5069929;28;20469;-70
2022/06/24 03:27:47;;;;;;;0.40;0.30;;;16.90;99.90;;;;;;5070331;28;20867;-69
2022/06/24 03:30:14;;;;;;;0.40;0.20;;;16.90;99.90;;;;;;5069449;28;20396;-69
2022/06/24 03:32:41;;;;;;;0.40;0.20;;;16.90;99.90;;;;;;5070320;28;20449;-69
2022/06/24 03:35:08;;;;;;;0.40;0.30;;;16.90;99.90;;;;;;5069847;28;20395;-69
2022/06/24 03:37:34;;;;;;;0.40;0.30;;;16.90;99.90;;;;;;5069296;28;20403;-69
2022/06/24 03:40:00;;;;;;;0.40;0.20;;;17.10;99.90;;;;;;5069942;28;20867;-68
2022/06/24 03:42:27;;;;;;;0.40;0.20;;;17.00;99.90;;;;;;5073857;28;20875;-70
2022/06/24 03:44:53;;;;;;;0.40;0.20;;;16.90;99.90;;;;;;5074386;28;20880;-70
2022/06/24 03:47:18;;;;;;;0.40;0.30;;;16.80;99.90;;;;;;5073190;28;20392;-69
2022/06/24 03:49:44;;;;;;;0.40;0.20;;;16.80;99.90;;;;;;5074032;28;20406;-71
2022/06/24 03:52:10;;;;;;;0.40;0.20;;;16.80;99.90;;;;;;5072749;28;20830;-69
2022/06/24 03:54:36;;;;;;;0.40;0.30;;;16.80;99.90;;;;;;5074273;28;20899;-70
2022/06/24 03:57:02;;;;;;;0.40;0.20;;;16.90;99.90;;;;;;5072997;28;20470;-70
2022/06/24 03:59:28;;;;;;;0.70;0.70;;;16.80;99.90;;;;;;5073959;28;20500;-72
2022/06/24 04:01:54;;;;;;;0.40;0.20;;;16.90;99.90;;;;;;5073763;28;20459;-70
2022/06/24 04:04:20;;;;;;;0.40;0.20;;;16.90;99.90;;;;;;5073434;28;20855;-70
2022/06/24 04:06:46;;;;;;;0.40;0.20;;;16.90;99.90;;;;;;5074038;28;20790;-71
2022/06/24 04:09:11;;;;;;;0.40;0.30;;;16.90;99.90;;;;;;5072783;28;20455;-72
2022/06/24 04:11:37;;;;;;;0.40;0.20;;;16.80;99.90;;;;;;5074142;28;20388;-71
2022/06/24 04:14:03;;;;;;;0.40;0.20;;;16.80;99.90;;;;;;5072952;28;20380;-71
2022/06/24 04:16:29;;;;;;;0.40;0.30;;;16.80;99.90;;;;;;5074140;28;20862;-72
2022/06/24 04:18:54;;;;;;;0.50;0.50;;;16.90;99.90;;;;;;5073961;28;20376;-71
2022/06/24 04:21:20;;;;;;;0.80;0.80;;;16.90;99.90;;;;;;5073151;28;20367;-70
2022/06/24 04:23:49;;;;;;;0.40;0.20;;;16.90;99.90;;;;;;5072281;28;20403;-71
2022/06/24 04:26:15;;;;;;;0.40;0.20;;;16.90;99.90;;;;;;5072837;28;20396;-71
2022/06/24 04:28:41;;;;;;;0.40;0.30;;;17.00;99.90;;;;;;5073368;28;20394;-71
2022/06/24 04:31:07;;;;;;;0.50;0.50;;;17.00;99.90;;;;;;5064009;28;20998;-70
2022/06/24 04:33:32;;;;;;;1.00;0.67;;;17.10;99.90;;;;;;5067093;28;20503;-70
2022/06/24 04:35:58;;;;;;;0.40;0.20;;;17.10;99.90;;;;;;5069543;28;20416;-69
2022/06/24 04:38:24;;;;;;;0.40;0.22;;;17.10;99.90;;;;;;5072687;28;20377;-70
2022/06/24 04:40:49;;;;;;;0.40;0.20;;;17.20;99.90;;;;;;5065576;28;20389;-70
2022/06/24 04:43:15;;;;;;;0.40;0.30;;;17.20;99.90;;;;;;5055284;28;20462;-71
2022/06/24 04:45:44;;;;;;;0.40;0.30;;;17.30;99.90;;;;;;5057496;28;20393;-70
2022/06/24 04:48:09;;;;;;;0.40;0.30;;;17.30;99.90;;;;;;5067207;28;20395;-70
2022/06/24 04:50:35;;;;;;;0.70;0.70;;;17.20;99.90;;;;;;5073255;28;20399;-70
2022/06/24 04:53:01;;;;;;;0.40;0.30;;;17.30;99.90;;;;;;5068577;28;20399;-69
2022/06/24 04:55:29;;;;;;;0.40;0.20;;;17.30;99.90;;;;;;5073404;28;20368;-71
2022/06/24 04:57:55;;;;;;;0.40;0.30;;;17.20;99.90;;;;;;5073149;28;20445;-71
2022/06/24 05:00:21;;;;;;;0.70;0.70;;;17.30;99.90;;;;;;5072203;28;21230;-70
2022/06/24 05:02:47;;;;;;;1.90;1.20;;;17.40;99.90;;;;;;5072936;28;20431;-71
2022/06/24 05:05:13;;;;;;;0.40;0.20;;;17.80;99.90;;;;;;5071927;28;20396;-70
2022/06/24 05:07:40;;;;;;;0.40;0.30;;;17.90;99.90;;;;;;5072665;28;20394;-71
2022/06/24 05:10:07;;;;;;;0.40;0.40;;;18.20;99.90;;;;;;5071825;28;20518;-71
2022/06/24 05:12:33;;;;;;;0.40;0.30;;;18.20;99.90;;;;;;5072916;28;20479;-71
2022/06/24 05:14:59;;;;;;;0.40;0.20;;;18.20;99.90;;;;;;5072549;28;20476;-70
2022/06/24 05:17:26;;;;;;;0.40;0.30;;;18.30;99.90;;;;;;5072216;28;20372;-71
2022/06/24 05:19:52;;;;;;;0.40;0.30;;;18.60;99.90;;;;;;5072084;28;20388;-71
2022/06/24 05:22:18;;;;;;;0.40;0.20;;;18.70;99.90;;;;;;5071119;28;20810;-70
2022/06/24 05:24:44;;;;;;;0.40;0.30;;;18.90;99.90;;;;;;5071972;28;20506;-71
2022/06/24 05:27:09;;;;;;;0.40;0.20;;;19.10;99.90;;;;;;5067315;28;20462;-71
2022/06/24 05:29:35;;;;;;;0.40;0.20;;;19.10;99.90;;;;;;5052673;28;20838;-71
2022/06/24 05:32:00;;;;;;;0.40;0.30;;;19.10;99.90;;;;;;5052383;28;20413;-70
2022/06/24 05:34:26;;;;;;;1.10;1.00;;;19.20;99.90;;;;;;5052321;28;20388;-71
2022/06/24 05:36:52;;;;;;;0.40;0.30;;;19.40;99.90;;;;;;5052421;28;20450;-70
2022/06/24 05:39:18;;;;;;;0.40;0.20;;;19.50;99.90;;;;;;5054508;28;20490;-70
2022/06/24 05:41:44;;;;;;;0.40;0.30;;;19.40;99.90;;;;;;5072317;28;20396;-72
2022/06/24 05:44:10;;;;;;;0.40;0.20;;;19.40;99.90;;;;;;5071119;28;20403;-70
2022/06/24 05:46:36;;;;;;;0.40;0.30;;;19.40;99.90;;;;;;5071961;28;20399;-70
2022/06/24 05:49:02;;;;;;;0.40;0.30;;;19.50;99.90;;;;;;5072054;28;20376;-70
2022/06/24 05:51:28;;;;;;;0.40;0.40;;;19.40;99.90;;;;;;5069861;28;20396;-71
2022/06/24 05:56:39;;;;;;;0.40;0.20;;;19.50;99.90;;;;;;5072068;28;20534;-71
2022/06/24 05:59:04;;;;;;;0.40;0.20;;;19.40;99.90;;;;;;5053301;28;20384;-71
2022/06/24 06:01:31;;;;;;;0.40;0.30;;;19.50;99.90;;;;;;5071978;28;20906;-72
2022/06/24 06:03:56;;;;;;;0.40;0.30;;;19.60;99.90;;;;;;5071022;28;20396;-72
2022/06/24 06:06:23;;;;;;;0.40;0.30;;;19.60;99.90;;;;;;5071089;28;20398;-73
2022/06/24 06:08:48;;;;;;;0.40;0.20;;;19.70;99.90;;;;;;5071725;28;20463;-73
2022/06/24 06:11:18;;;;;;;0.40;0.20;;;19.80;99.90;;;;;;5070940;28;20924;-73
2022/06/24 06:13:45;;;;;;;0.40;0.20;;;19.80;99.90;;;;;;5071624;28;20404;-73
2022/06/24 06:16:11;;;;;;;0.40;0.28;;;19.70;99.90;;;;;;5071189;28;20398;-73
2022/06/24 06:18:37;;;;;;;0.40;0.30;;;19.70;99.90;;;;;;5071288;28;20387;-74
2022/06/24 06:21:08;;;;;;;0.40;0.30;;;19.70;99.90;;;;;;5071184;28;20451;-73
2022/06/24 06:23:35;;;;;;;0.40;0.20;;;19.70;99.90;;;;;;5071536;28;20569;-74
2022/06/24 06:26:03;;;;;;;0.40;0.30;;;19.80;99.90;;;;;;5069247;28;20386;-75
2022/06/24 06:28:28;;;;;;;0.40;0.20;;;19.80;99.90;;;;;;5070944;28;20421;-73
2022/06/24 06:30:54;;;;;;;0.40;0.30;;;19.90;99.90;;;;;;5054719;28;20849;-75
2022/06/24 06:33:20;;;;;;;0.40;0.20;;;20.00;99.90;;;;;;5068344;28;20437;-76
2022/06/24 06:35:46;;;;;;;0.40;0.30;;;20.20;99.90;;;;;;5069487;28;20383;-75
2022/06/24 06:38:11;;;;;;;0.40;0.20;;;20.30;99.90;;;;;;5071432;28;20842;-73
2022/06/24 06:40:38;;;;;;;0.40;0.30;;;20.60;99.90;;;;;;5069200;28;20445;-68
2022/06/24 06:43:07;;;;;;;0.40;0.30;;;20.60;99.90;;;;;;5069289;28;20424;-68
2022/06/24 06:45:34;;;;;;;0.40;0.20;;;20.60;99.90;;;;;;5067703;28;20793;-68
2022/06/24 06:47:59;;;;;;;0.40;0.22;;;20.70;99.90;;;;;;5069365;28;20816;-68
2022/06/24 06:50:26;;;;;;;0.50;0.50;;;20.60;99.90;;;;;;5070799;28;20453;-69
2022/06/24 06:52:51;;;;;;;0.40;0.22;;;20.70;99.90;;;;;;5070389;28;20433;-68
2022/06/24 06:55:17;;;;;;;0.40;0.20;;;20.70;99.90;;;;;;5066706;28;20418;-66
2022/06/24 06:57:43;;;;;;;0.40;0.30;;;20.60;99.90;;;;;;5069657;28;20937;-68
2022/06/24 07:00:09;;;;;;;0.40;0.20;;;20.70;99.90;;;;;;5070446;28;20385;-69
2022/06/24 07:02:36;;;;;;;0.40;0.20;;;20.90;99.90;;;;;;5067150;28;20436;-69
2022/06/24 07:05:03;;;;;;;1.00;0.90;;;21.10;99.90;;;;;;5070214;28;20734;-70
2022/06/24 07:07:28;;;;;;;0.40;0.25;;;21.00;99.90;;;;;;5070198;28;20392;-69
2022/06/24 07:09:54;;;;;;;0.40;0.20;;;21.00;99.90;;;;;;5067370;28;20385;-69
2022/06/24 07:12:20;;;;;;;0.40;0.30;;;21.10;99.90;;;;;;5067032;28;21260;-69
2022/06/24 07:14:46;;;;;;;0.40;0.30;;;21.30;99.90;;;;;;5066061;28;20396;-69
2022/06/24 07:17:12;;;;;;;0.40;0.20;;;21.30;99.90;;;;;;5070164;28;20488;-68
2022/06/24 07:19:38;;;;;;;0.40;0.30;;;21.20;99.90;;;;;;5069908;28;20399;-68
2022/06/24 07:22:04;;;;;;;0.40;0.20;;;21.20;99.90;;;;;;5069654;28;20764;-66
2022/06/24 07:24:30;;;;;;;0.40;0.30;;;21.40;99.90;;;;;;5069352;28;20483;-67
2022/06/24 07:26:55;;;;;;;0.40;0.30;;;21.40;99.90;;;;;;5061949;28;20542;-66
2022/06/24 07:29:21;;;;;;;0.40;0.20;;;21.60;99.90;;;;;;5058607;28;20916;-66
2022/06/24 07:31:47;;;;;;;0.40;0.20;;;21.70;99.90;;;;;;5059137;28;20406;-65
2022/06/24 07:34:17;;;;;;;0.40;0.30;;;21.70;99.90;;;;;;5060529;28;20496;-66
2022/06/24 07:36:43;;;;;;;0.40;0.22;;;21.80;99.90;;;;;;5066201;28;20384;-66
2022/06/24 07:39:09;;;;;;;0.50;0.50;;;21.80;99.90;;;;;;5061259;28;20470;-65
2022/06/24 07:41:35;;;;;;;0.40;0.30;;;21.80;99.90;;;;;;5051877;28;20421;-67
2022/06/24 07:44:01;;;;;;;0.50;0.40;;;21.80;99.90;;;;;;5053317;28;20787;-66
2022/06/24 07:46:27;;;;;;;0.40;0.30;;;21.70;99.90;;;;;;5049530;28;20511;-66
2022/06/24 07:48:53;;;;;;;0.40;0.20;;;21.80;99.90;;;;;;5050694;28;20409;-69
2022/06/24 07:51:19;;;;;;;0.40;0.20;;;22.10;99.90;;;;;;5050978;28;20393;-71
2022/06/24 07:53:47;;;;;;;0.40;0.20;;;22.20;99.90;;;;;;5090194;28;20401;-69
2022/06/24 07:58:58;;;;;;;0.40;0.20;;;22.20;99.90;;;;;;5069145;28;20386;-65
2022/06/24 08:01:24;;;;;;;0.40;0.20;;;22.20;99.90;;;;;;5067922;28;20751;-66
2022/06/24 08:03:49;;;;;;;0.40;0.30;;;22.30;99.90;;;;;;5066929;28;20407;-65
2022/06/24 08:06:15;;;;;;;0.40;0.20;;;22.30;99.90;;;;;;5066556;28;20814;-65
2022/06/24 08:08:41;;;;;;;0.40;0.30;;;22.30;99.90;;;;;;5061759;28;20908;-65
2022/06/24 08:11:07;;;;;;;0.40;0.20;;;22.30;99.90;;;;;;5062623;28;20939;-68
2022/06/24 08:13:33;;;;;;;0.40;0.20;;;22.40;99.90;;;;;;5067517;28;20478;-68
2022/06/24 08:16:02;;;;;;;0.40;0.20;;;22.40;99.90;;;;;;5066561;28;20423;-68
2022/06/24 08:18:36;;;;;;;0.40;0.20;;;22.50;99.90;;;;;;5069068;28;20391;-67
2022/06/24 08:21:05;;;;;;;0.40;0.20;;;22.40;99.90;;;;;;5069419;28;20392;-67
2022/06/24 08:23:34;;;;;;;0.40;0.30;;;22.30;99.90;;;;;;5069044;28;20827;-67
2022/06/24 08:26:17;;;;;;;0.40;0.20;;;22.40;99.90;;;;;;5061903;28;20406;-67
2022/06/24 08:28:56;;;;;;;0.40;0.30;;;22.60;99.90;;;;;;5064845;28;20377;-68
2022/06/24 08:31:28;;;;;;;0.40;0.20;;;22.70;99.90;;;;;;5063971;28;20391;-71
2022/06/24 08:33:53;;;;;;;0.40;0.20;;;22.60;99.90;;;;;;5032695;28;20502;-67
2022/06/24 08:36:24;;;;;;;0.40;0.20;;;22.50;99.90;;;;;;5032292;28;20789;-68
2022/06/24 08:38:50;;;;;;;0.40;0.30;;;22.70;99.90;;;;;;5032787;28;20911;-67
2022/06/24 08:41:24;;;;;;;0.40;0.20;;;22.70;99.90;;;;;;5029678;28;20391;-68
2022/06/24 08:43:51;;;;;;;0.40;0.30;;;22.80;99.90;;;;;;5037960;28;20435;-67
2022/06/24 08:46:17;;;;;;;0.40;0.30;;;22.90;99.90;;;;;;5031338;28;20741;-68
2022/06/24 08:48:43;;;;;;;2.20;1.55;;;22.90;99.90;;;;;;5029279;28;20445;-67
2022/06/24 08:51:12;;;;;;;0.40;0.30;;;23.00;99.90;;;;;;5027437;28;20825;-68
2022/06/24 08:53:42;;;;;;;0.40;0.30;;;23.20;99.90;;;;;;5027827;28;20401;-67
2022/06/24 08:56:08;;;;;;;0.40;0.20;;;23.40;99.90;;;;;;5024612;28;20387;-66
2022/06/24 08:58:35;;;;;;;0.40;0.20;;;23.40;99.90;;;;;;5028507;28;20482;-67
2022/06/24 09:01:01;;;;;;;1.00;0.70;;;23.40;99.90;;;;;;5030666;28;20449;-66
2022/06/24 09:03:26;;;;;;;0.60;0.50;;;23.40;99.90;;;;;;5030579;28;20435;-67
2022/06/24 09:05:52;;;;;;;0.40;0.20;;;23.50;99.90;;;;;;5032864;28;20399;-66
2022/06/24 09:08:18;;;;;;;0.40;0.30;;;23.50;99.90;;;;;;5028544;28;20800;-68
2022/06/24 09:13:39;;;;;;;0.40;0.30;;;24.00;99.90;;;;;;5040470;28;20396;-67
2022/06/24 09:16:07;;;;;;;0.40;0.30;;;24.10;98.10;;;;;;5039228;28;20433;-66
2022/06/24 09:18:32;;;;;;;0.40;0.20;;;24.10;99.90;;;;;;5041866;28;20414;-67
2022/06/24 09:20:58;;;;;;;0.40;0.20;;;24.00;99.80;;;;;;5043018;28;21210;-67
2022/06/24 09:23:24;;;;;;;0.40;0.20;;;24.00;99.90;;;;;;5023962;28;20442;-68
2022/06/24 09:26:02;;;;;;;0.40;0.30;;;24.10;99.90;;;;;;5031909;28;20399;-67
2022/06/24 09:28:32;;;;;;;0.40;0.30;;;24.30;99.90;;;;;;5028122;28;20802;-68
2022/06/24 09:31:09;;;;;;;0.40;0.40;;;24.20;99.90;;;;;;5031504;28;20383;-67
2022/06/24 09:33:40;;;;;;;0.40;0.20;;;24.10;99.90;;;;;;5065370;28;20412;-68
2022/06/24 09:36:08;;;;;;;0.40;0.20;;;23.80;99.60;;;;;;5071248;28;20391;-67
2022/06/24 09:38:54;;;;;;;0.40;0.30;;;23.80;99.80;;;;;;5065319;28;20984;-68
2022/06/24 09:41:20;;;;;;;0.40;0.20;;;23.70;99.90;;;;;;5067631;28;20446;-66
2022/06/24 09:43:46;;;;;;;0.40;0.20;;;23.60;99.90;;;;;;5071407;28;20392;-70
2022/06/24 09:46:23;;;;;;;0.40;0.30;;;23.60;99.90;;;;;;5071069;28;20450;-66
2022/06/24 09:49:00;;;;;;;0.40;0.28;;;23.50;99.30;;;;;;5071026;28;20372;-67
2022/06/24 09:51:28;;;;;;;0.40;0.20;;;23.50;99.90;;;;;;5070822;28;20848;-67
2022/06/24 09:53:55;;;;;;;0.40;0.30;;;23.60;99.90;;;;;;5072992;28;20412;-69
2022/06/24 09:56:22;;;;;;;0.40;0.30;;;23.50;99.80;;;;;;5069789;28;20463;-68
2022/06/24 10:01:35;;;;;;;0.40;0.30;;;23.30;99.90;;;;;;5067966;28;20433;-68
2022/06/24 10:04:08;;;;;;;0.40;0.30;;;23.30;99.90;;;;;;5070802;28;20411;-68
2022/06/24 10:06:36;;;;;;;0.40;0.30;;;23.20;99.90;;;;;;5068549;28;20380;-68
2022/06/24 10:09:05;;;;;;;0.40;0.20;;;23.40;99.90;;;;;;5069698;28;20403;-66
2022/06/24 10:11:34;;;;;;;0.40;0.30;;;23.30;99.90;;;;;;5068901;28;20391;-67
2022/06/24 10:14:01;;;;;;;0.40;0.20;;;23.20;99.90;;;;;;5061302;28;20394;-67
2022/06/24 10:16:27;;;;;;;0.40;0.30;;;23.20;99.90;;;;;;5063614;28;20376;-69
2022/06/24 10:18:54;;;;;;;0.40;0.30;;;23.20;99.90;;;;;;5068278;28;20402;-69
2022/06/24 10:21:20;;;;;;;0.40;0.20;;;22.90;99.90;;;;;;5069030;28;20438;-67
2022/06/24 10:23:50;;;;;;;0.40;0.30;;;22.90;99.90;;;;;;5070408;28;20470;-66
2022/06/24 10:26:30;;;;;;;0.40;0.20;;;22.80;99.90;;;;;;5063067;28;20395;-67
2022/06/24 10:29:04;;;;;;;0.40;0.30;;;22.80;99.90;;;;;;5068406;28;20391;-68
2022/06/24 10:31:42;;;;;;;0.40;0.30;;;22.70;99.90;;;;;;5050786;28;20398;-67
2022/06/24 10:34:20;;;;;;;0.40;0.30;;;22.60;99.90;;;;;;5069192;28;20404;-69
2022/06/24 10:36:46;;;;;;;0.40;0.20;;;22.40;99.90;;;;;;5066455;28;20452;-67
2022/06/24 10:39:15;;;;;;;0.40;0.20;;;22.30;99.90;;;;;;5066971;28;20828;-67
2022/06/24 10:41:42;;;;;;;0.40;0.20;;;22.20;99.90;;;;;;5065046;28;20429;-66
2022/06/24 10:44:52;;;;;;;0.40;0.20;;;22.10;99.90;;;;;;5069789;28;20411;-67
2022/06/24 10:47:19;;;;;;;0.40;0.20;;;22.10;99.90;;;;;;4976897;28;20415;-66
2022/06/24 10:49:51;;;;;;;0.40;0.20;;;22.20;99.90;;;;;;5058296;28;20423;-66
2022/06/24 10:52:32;;;;;;;0.40;0.28;;;22.10;99.90;;;;;;5067500;28;20411;-66
2022/06/24 10:55:18;;;;;;;0.40;0.30;;;21.90;99.90;;;;;;5066861;28;20395;-66
2022/06/24 10:57:45;;;;;;;0.40;0.30;;;22.00;99.90;;;;;;5068669;28;20566;-66
2022/06/24 11:00:11;;;;;;;0.80;0.80;;;22.10;99.90;;;;;;5069313;28;20752;-66
2022/06/24 11:02:36;;;;;;;0.40;0.30;;;22.20;99.90;;;;;;5067155;28;20431;-67
2022/06/24 11:05:04;;;;;;;0.40;0.30;;;22.20;99.90;;;;;;5065032;28;20479;-69
2022/06/24 11:07:29;;;;;;;0.40;0.30;;;22.10;99.90;;;;;;5065391;28;20446;-66
2022/06/24 11:09:55;;;;;;;0.40;0.30;;;22.10;99.90;;;;;;5068487;28;20427;-66
2022/06/24 11:12:31;;;;;;;0.40;0.20;;;22.10;99.90;;;;;;5067643;28;20387;-66
2022/06/24 11:14:58;;;;;;;0.40;0.20;;;22.10;99.90;;;;;;5069153;28;20728;-65
2022/06/24 11:17:27;;;;;;;0.40;0.20;;;22.00;99.90;;;;;;5067322;28;20380;-65
2022/06/24 11:19:53;;;;;;;0.40;0.30;;;21.90;99.90;;;;;;5070027;28;20399;-66
2022/06/24 11:22:19;;;;;;;0.40;0.28;;;21.80;99.90;;;;;;5069814;28;20412;-66
2022/06/24 11:24:49;;;;;;;0.40;0.30;;;21.80;99.90;;;;;;5070022;28;20475;-66
2022/06/24 11:27:15;;;;;;;0.40;0.30;;;21.80;99.90;;;;;;5074764;28;20458;-66
2022/06/24 11:29:53;;;;;;;0.40;0.20;;;21.70;99.90;;;;;;5063948;28;20371;-65
2022/06/24 11:32:19;;;;;;;0.40;0.30;;;21.70;99.90;;;;;;5069684;28;20403;-66
2022/06/24 11:34:46;;;;;;;0.40;0.23;;;21.70;99.90;;;;;;5056641;28;20389;-65
2022/06/24 11:37:12;;;;;;;0.40;0.30;;;21.60;99.90;;;;;;5059334;28;20484;-65
2022/06/24 11:39:38;;;;;;;0.40;0.40;;;21.40;99.90;;;;;;5057316;28;20493;-66
2022/06/24 11:42:04;;;;;;;0.40;0.20;;;21.40;99.90;;;;;;5069808;28;20502;-66
2022/06/24 11:44:40;;;;;;;0.40;0.30;;;21.30;99.90;;;;;;5075838;28;20484;-66
2022/06/24 11:47:06;;;;;;;0.40;0.20;;;21.30;99.90;;;;;;5061392;28;20789;-69
2022/06/24 11:49:34;;;;;;;0.40;0.20;;;21.10;99.90;;;;;;5069428;28;20376;-67
2022/06/24 11:52:01;;;;;;;0.40;0.20;;;20.80;99.90;;;;;;5065162;28;20392;-67
2022/06/24 11:54:28;;;;;;;0.40;0.30;;;20.50;99.90;;;;;;5049523;28;20386;-65
2022/06/24 11:56:57;;;;;;;0.40;0.20;;;20.10;99.90;;;;;;5051923;28;20479;-67
2022/06/24 11:59:26;;;;;;;0.40;0.30;;;19.70;99.90;;;;;;5060386;28;20396;-66
2022/06/24 12:01:52;;;;;;;0.40;0.30;;;19.50;99.90;;;;;;5061674;28;20635;-67
2022/06/24 12:04:20;;;;;;;0.40;0.20;;;19.50;99.90;;;;;;5054529;28;20395;-66
2022/06/24 12:06:47;;;;;;;0.40;0.30;;;19.50;99.90;;;;;;5072298;28;20387;-67
2022/06/24 12:09:13;;;;;;;0.40;0.20;;;19.50;99.90;;;;;;5077208;28;20390;-67
2022/06/24 12:11:40;;;;;;;0.40;0.20;;;19.60;99.90;;;;;;5073825;28;20474;-66
2022/06/24 12:14:09;;;;;;;0.40;0.20;;;19.70;99.90;;;;;;5071800;28;20815;-66
2022/06/24 12:16:57;;;;;;;0.40;0.20;;;19.70;99.90;;;;;;5072523;28;20383;-67
2022/06/24 12:19:23;;;;;;;0.40;0.20;;;19.70;99.90;;;;;;5072920;28;20396;-66
2022/06/24 12:21:49;;;;;;;0.40;0.20;;;19.70;99.90;;;;;;5073453;28;20403;-67
2022/06/24 12:24:24;;;;;;;0.40;0.20;;;19.80;99.90;;;;;;5073659;28;20449;-69
2022/06/24 12:26:55;;;;;;;0.40;0.30;;;19.80;99.90;;;;;;5073429;28;20380;-67
2022/06/24 12:29:32;;;;;;;0.40;0.30;;;19.90;99.90;;;;;;5072661;28;21028;-67
2022/06/24 12:32:00;;;;;;;0.40;0.20;;;19.90;99.90;;;;;;5073120;28;20407;-66
2022/06/24 12:34:36;;;;;;;0.40;0.20;;;20.00;99.90;;;;;;5072498;28;20384;-66
2022/06/24 12:37:05;;;;;;;0.40;0.30;;;20.20;99.90;;;;;;5073349;28;20466;-66
2022/06/24 12:39:37;;;;;;;0.40;0.20;;;20.20;99.90;;;;;;5072605;28;20380;-69
2022/06/24 12:42:04;;;;;;;0.40;0.20;;;20.30;99.90;;;;;;5073549;28;20701;-66
2022/06/24 12:44:52;;;;;;;0.40;0.20;;;20.30;99.90;;;;;;5071867;28;20417;-66
2022/06/24 12:53:00;;;;;;;0.50;0.50;;;20.60;99.90;;;;;;5077166;28;20403;-66
2022/06/24 12:55:27;;;;;;;0.40;0.30;;;20.60;99.90;;;;;;5071578;28;20465;-66
2022/06/24 12:57:52;;;;;;;0.40;0.20;;;20.80;99.90;;;;;;5072746;28;20807;-68
2022/06/24 13:00:18;;;;;;;0.40;0.30;;;21.00;99.90;;;;;;5072310;28;20388;-67
2022/06/24 13:02:46;;;;;;;0.40;0.30;;;21.20;99.90;;;;;;5072173;28;20459;-67
2022/06/24 13:05:13;;;;;;;0.40;0.20;;;21.70;99.90;;;;;;5072030;28;20753;-67
2022/06/24 13:07:39;;;;;;;0.40;0.20;;;22.20;99.90;;;;;;5071112;28;20399;-67
2022/06/24 13:10:07;;;;;;;0.40;0.20;;;22.20;99.90;;;;;;5072410;28;20392;-67
2022/06/24 13:12:36;;;;;;;0.60;0.60;;;22.30;99.90;;;;;;5070600;28;20479;-65